sensor_id;sensor_type;location;lat;lon;timestamp;P1;durP1;ratioP1;P2;durP2;ratioP2
71836;SDS011;59686;51.716;7.016;2023-08-07T00:00:52;1.55;;;0.80;;
71836;SDS011;59686;51.716;7.016;2023-08-07T00:03:18;2.00;;;0.80;;
71836;SDS011;59686;51.716;7.016;2023-08-07T00:05:44;0.77;;;0.43;;
71836;SDS011;59686;51.716;7.016;2023-08-07T00:08:11;1.13;;;0.60;;
71836;SDS011;59686;51.716;7.016;2023-08-07T00:10:37;1.40;;;0.70;;
71836;SDS011;59686;51.716;7.016;2023-08-07T00:13:03;1.63;;;0.90;;
71836;SDS011;59686;51.716;7.016;2023-08-07T00:15:29;0.65;;;0.50;;
71836;SDS011;59686;51.716;7.016;2023-08-07T00:17:55;0.40;;;0.40;;
71836;SDS011;59686;51.716;7.016;2023-08-07T00:20:21;1.67;;;0.60;;
71836;SDS011;59686;51.716;7.016;2023-08-07T00:22:46;0.52;;;0.50;;
71836;SDS011;59686;51.716;7.016;2023-08-07T00:25:12;0.85;;;0.57;;
71836;SDS011;59686;51.716;7.016;2023-08-07T00:27:38;0.50;;;0.50;;
71836;SDS011;59686;51.716;7.016;2023-08-07T00:30:04;1.42;;;0.57;;
71836;SDS011;59686;51.716;7.016;2023-08-07T00:32:30;1.42;;;0.60;;
71836;SDS011;59686;51.716;7.016;2023-08-07T00:34:56;0.60;;;0.60;;
71836;SDS011;59686;51.716;7.016;2023-08-07T00:37:21;0.63;;;0.50;;
71836;SDS011;59686;51.716;7.016;2023-08-07T00:39:47;1.23;;;0.70;;
71836;SDS011;59686;51.716;7.016;2023-08-07T00:42:13;1.98;;;0.70;;
71836;SDS011;59686;51.716;7.016;2023-08-07T00:44:38;1.17;;;0.82;;
71836;SDS011;59686;51.716;7.016;2023-08-07T00:47:04;1.40;;;0.95;;
71836;SDS011;59686;51.716;7.016;2023-08-07T00:49:31;2.22;;;0.85;;
71836;SDS011;59686;51.716;7.016;2023-08-07T00:51:57;0.77;;;0.50;;
71836;SDS011;59686;51.716;7.016;2023-08-07T00:54:24;1.48;;;0.70;;
71836;SDS011;59686;51.716;7.016;2023-08-07T00:56:50;0.73;;;0.52;;
71836;SDS011;59686;51.716;7.016;2023-08-07T00:59:16;2.78;;;1.00;;
71836;SDS011;59686;51.716;7.016;2023-08-07T01:01:44;1.67;;;0.80;;
71836;SDS011;59686;51.716;7.016;2023-08-07T01:04:10;2.10;;;0.65;;
71836;SDS011;59686;51.716;7.016;2023-08-07T01:06:36;1.77;;;1.02;;
71836;SDS011;59686;51.716;7.016;2023-08-07T01:09:02;2.03;;;1.15;;
71836;SDS011;59686;51.716;7.016;2023-08-07T01:11:49;2.50;;;0.80;;
71836;SDS011;59686;51.716;7.016;2023-08-07T01:17:09;0.88;;;0.65;;
71836;SDS011;59686;51.716;7.016;2023-08-07T01:19:39;3.38;;;0.90;;
71836;SDS011;59686;51.716;7.016;2023-08-07T01:24:39;3.20;;;1.00;;
71836;SDS011;59686;51.716;7.016;2023-08-07T01:29:52;2.38;;;1.13;;
71836;SDS011;59686;51.716;7.016;2023-08-07T01:32:26;1.17;;;0.75;;
71836;SDS011;59686;51.716;7.016;2023-08-07T01:34:57;1.85;;;1.13;;
71836;SDS011;59686;51.716;7.016;2023-08-07T01:37:26;1.83;;;1.10;;
71836;SDS011;59686;51.716;7.016;2023-08-07T01:39:54;1.20;;;0.80;;
71836;SDS011;59686;51.716;7.016;2023-08-07T01:42:22;2.45;;;0.85;;
71836;SDS011;59686;51.716;7.016;2023-08-07T01:44:48;2.22;;;1.00;;
71836;SDS011;59686;51.716;7.016;2023-08-07T01:47:14;2.72;;;1.00;;
71836;SDS011;59686;51.716;7.016;2023-08-07T01:49:39;1.50;;;0.80;;
71836;SDS011;59686;51.716;7.016;2023-08-07T01:52:06;1.00;;;0.90;;
71836;SDS011;59686;51.716;7.016;2023-08-07T01:54:32;3.00;;;1.25;;
71836;SDS011;59686;51.716;7.016;2023-08-07T01:56:59;1.58;;;0.80;;
71836;SDS011;59686;51.716;7.016;2023-08-07T01:59:25;2.55;;;1.02;;
71836;SDS011;59686;51.716;7.016;2023-08-07T02:01:50;1.42;;;0.93;;
71836;SDS011;59686;51.716;7.016;2023-08-07T02:04:16;1.55;;;0.90;;
71836;SDS011;59686;51.716;7.016;2023-08-07T02:06:42;2.28;;;0.90;;
71836;SDS011;59686;51.716;7.016;2023-08-07T02:09:08;1.65;;;1.00;;
71836;SDS011;59686;51.716;7.016;2023-08-07T02:11:33;1.27;;;0.93;;
71836;SDS011;59686;51.716;7.016;2023-08-07T02:13:59;1.20;;;0.80;;
71836;SDS011;59686;51.716;7.016;2023-08-07T02:16:25;1.25;;;0.90;;
71836;SDS011;59686;51.716;7.016;2023-08-07T02:18:50;3.10;;;0.77;;
71836;SDS011;59686;51.716;7.016;2023-08-07T02:21:16;2.08;;;0.90;;
71836;SDS011;59686;51.716;7.016;2023-08-07T02:23:41;2.25;;;1.00;;
71836;SDS011;59686;51.716;7.016;2023-08-07T02:26:07;1.40;;;0.90;;
71836;SDS011;59686;51.716;7.016;2023-08-07T02:28:33;3.15;;;1.05;;
71836;SDS011;59686;51.716;7.016;2023-08-07T02:30:59;2.55;;;1.00;;
71836;SDS011;59686;51.716;7.016;2023-08-07T02:33:25;1.50;;;0.90;;
71836;SDS011;59686;51.716;7.016;2023-08-07T02:35:50;1.50;;;0.73;;
71836;SDS011;59686;51.716;7.016;2023-08-07T02:38:16;2.13;;;0.98;;
71836;SDS011;59686;51.716;7.016;2023-08-07T02:40:42;0.88;;;0.75;;
71836;SDS011;59686;51.716;7.016;2023-08-07T02:43:08;1.00;;;0.85;;
71836;SDS011;59686;51.716;7.016;2023-08-07T02:45:34;1.85;;;0.70;;
71836;SDS011;59686;51.716;7.016;2023-08-07T02:48:00;1.85;;;1.00;;
71836;SDS011;59686;51.716;7.016;2023-08-07T02:50:26;3.03;;;1.00;;
71836;SDS011;59686;51.716;7.016;2023-08-07T02:52:54;1.42;;;0.90;;
71836;SDS011;59686;51.716;7.016;2023-08-07T02:55:20;2.50;;;0.80;;
71836;SDS011;59686;51.716;7.016;2023-08-07T02:57:46;1.15;;;0.90;;
71836;SDS011;59686;51.716;7.016;2023-08-07T03:00:11;1.33;;;0.88;;
71836;SDS011;59686;51.716;7.016;2023-08-07T03:02:37;1.38;;;0.88;;
71836;SDS011;59686;51.716;7.016;2023-08-07T03:05:03;1.75;;;1.02;;
71836;SDS011;59686;51.716;7.016;2023-08-07T03:07:29;2.45;;;1.10;;
71836;SDS011;59686;51.716;7.016;2023-08-07T03:09:54;1.65;;;0.73;;
71836;SDS011;59686;51.716;7.016;2023-08-07T03:12:20;1.40;;;1.00;;
71836;SDS011;59686;51.716;7.016;2023-08-07T03:14:50;3.00;;;0.90;;
71836;SDS011;59686;51.716;7.016;2023-08-07T03:17:16;1.42;;;0.80;;
71836;SDS011;59686;51.716;7.016;2023-08-07T03:19:42;3.38;;;1.13;;
71836;SDS011;59686;51.716;7.016;2023-08-07T03:22:08;2.33;;;1.10;;
71836;SDS011;59686;51.716;7.016;2023-08-07T03:24:34;2.47;;;1.40;;
71836;SDS011;59686;51.716;7.016;2023-08-07T03:27:00;1.48;;;1.05;;
71836;SDS011;59686;51.716;7.016;2023-08-07T03:29:26;2.53;;;1.10;;
71836;SDS011;59686;51.716;7.016;2023-08-07T03:31:52;1.38;;;1.10;;
71836;SDS011;59686;51.716;7.016;2023-08-07T03:34:17;2.35;;;1.23;;
71836;SDS011;59686;51.716;7.016;2023-08-07T03:36:44;2.38;;;1.40;;
71836;SDS011;59686;51.716;7.016;2023-08-07T03:39:10;3.42;;;1.27;;
71836;SDS011;59686;51.716;7.016;2023-08-07T03:41:37;2.25;;;1.63;;
71836;SDS011;59686;51.716;7.016;2023-08-07T03:44:03;3.15;;;1.65;;
71836;SDS011;59686;51.716;7.016;2023-08-07T03:46:29;2.90;;;1.60;;
71836;SDS011;59686;51.716;7.016;2023-08-07T03:48:54;2.78;;;1.40;;
71836;SDS011;59686;51.716;7.016;2023-08-07T03:51:20;4.75;;;1.85;;
71836;SDS011;59686;51.716;7.016;2023-08-07T03:53:46;3.80;;;1.65;;
71836;SDS011;59686;51.716;7.016;2023-08-07T03:56:11;5.32;;;1.63;;
71836;SDS011;59686;51.716;7.016;2023-08-07T03:58:37;4.28;;;1.70;;
71836;SDS011;59686;51.716;7.016;2023-08-07T04:01:03;6.40;;;1.92;;
71836;SDS011;59686;51.716;7.016;2023-08-07T04:03:29;4.47;;;1.70;;
71836;SDS011;59686;51.716;7.016;2023-08-07T04:05:54;2.42;;;1.55;;
71836;SDS011;59686;51.716;7.016;2023-08-07T04:08:21;4.57;;;2.10;;
71836;SDS011;59686;51.716;7.016;2023-08-07T04:10:59;4.43;;;1.90;;
71836;SDS011;59686;51.716;7.016;2023-08-07T04:13:29;3.40;;;1.63;;
71836;SDS011;59686;51.716;7.016;2023-08-07T04:15:56;3.08;;;1.92;;
71836;SDS011;59686;51.716;7.016;2023-08-07T04:18:22;4.07;;;1.83;;
71836;SDS011;59686;51.716;7.016;2023-08-07T04:20:54;4.05;;;1.52;;
71836;SDS011;59686;51.716;7.016;2023-08-07T04:23:21;4.65;;;2.00;;
71836;SDS011;59686;51.716;7.016;2023-08-07T04:25:47;5.97;;;1.80;;
71836;SDS011;59686;51.716;7.016;2023-08-07T04:28:13;4.07;;;1.70;;
71836;SDS011;59686;51.716;7.016;2023-08-07T04:30:39;4.43;;;2.20;;
71836;SDS011;59686;51.716;7.016;2023-08-07T04:33:07;6.18;;;1.85;;
71836;SDS011;59686;51.716;7.016;2023-08-07T04:35:33;5.15;;;2.13;;
71836;SDS011;59686;51.716;7.016;2023-08-07T04:37:59;4.05;;;1.83;;
71836;SDS011;59686;51.716;7.016;2023-08-07T04:40:26;3.55;;;1.60;;
71836;SDS011;59686;51.716;7.016;2023-08-07T04:42:52;3.45;;;2.00;;
71836;SDS011;59686;51.716;7.016;2023-08-07T04:45:17;3.00;;;1.58;;
71836;SDS011;59686;51.716;7.016;2023-08-07T04:47:44;4.50;;;1.85;;
71836;SDS011;59686;51.716;7.016;2023-08-07T04:50:09;5.80;;;1.95;;
71836;SDS011;59686;51.716;7.016;2023-08-07T04:52:36;6.13;;;1.73;;
71836;SDS011;59686;51.716;7.016;2023-08-07T04:55:02;4.65;;;2.10;;
71836;SDS011;59686;51.716;7.016;2023-08-07T04:57:28;4.18;;;1.98;;
71836;SDS011;59686;51.716;7.016;2023-08-07T04:59:53;4.72;;;1.80;;
71836;SDS011;59686;51.716;7.016;2023-08-07T05:02:19;3.95;;;2.10;;
71836;SDS011;59686;51.716;7.016;2023-08-07T05:04:45;4.45;;;1.77;;
71836;SDS011;59686;51.716;7.016;2023-08-07T05:07:11;3.65;;;1.90;;
71836;SDS011;59686;51.716;7.016;2023-08-07T05:09:37;7.00;;;2.13;;
71836;SDS011;59686;51.716;7.016;2023-08-07T05:12:04;2.60;;;1.92;;
71836;SDS011;59686;51.716;7.016;2023-08-07T05:14:32;3.67;;;1.70;;
71836;SDS011;59686;51.716;7.016;2023-08-07T05:16:58;7.75;;;1.90;;
71836;SDS011;59686;51.716;7.016;2023-08-07T05:19:25;3.50;;;1.83;;
71836;SDS011;59686;51.716;7.016;2023-08-07T05:21:53;4.18;;;1.80;;
71836;SDS011;59686;51.716;7.016;2023-08-07T05:24:18;3.33;;;1.83;;
71836;SDS011;59686;51.716;7.016;2023-08-07T05:26:44;3.58;;;1.60;;
71836;SDS011;59686;51.716;7.016;2023-08-07T05:29:10;3.72;;;1.58;;
71836;SDS011;59686;51.716;7.016;2023-08-07T05:31:37;4.38;;;1.85;;
71836;SDS011;59686;51.716;7.016;2023-08-07T05:34:02;4.55;;;1.98;;
71836;SDS011;59686;51.716;7.016;2023-08-07T05:36:28;2.95;;;1.80;;
71836;SDS011;59686;51.716;7.016;2023-08-07T05:38:56;4.15;;;1.52;;
71836;SDS011;59686;51.716;7.016;2023-08-07T05:41:22;3.33;;;1.55;;
71836;SDS011;59686;51.716;7.016;2023-08-07T05:43:48;2.97;;;1.52;;
71836;SDS011;59686;51.716;7.016;2023-08-07T05:46:14;3.55;;;1.50;;
71836;SDS011;59686;51.716;7.016;2023-08-07T05:48:39;3.40;;;1.70;;
71836;SDS011;59686;51.716;7.016;2023-08-07T05:51:05;3.55;;;1.60;;
71836;SDS011;59686;51.716;7.016;2023-08-07T05:53:32;3.72;;;1.75;;
71836;SDS011;59686;51.716;7.016;2023-08-07T05:55:59;3.03;;;1.55;;
71836;SDS011;59686;51.716;7.016;2023-08-07T05:58:24;4.78;;;1.70;;
71836;SDS011;59686;51.716;7.016;2023-08-07T06:00:50;3.33;;;1.40;;
71836;SDS011;59686;51.716;7.016;2023-08-07T06:03:15;3.60;;;1.63;;
71836;SDS011;59686;51.716;7.016;2023-08-07T06:05:41;3.15;;;1.90;;
71836;SDS011;59686;51.716;7.016;2023-08-07T06:08:07;2.65;;;1.30;;
71836;SDS011;59686;51.716;7.016;2023-08-07T06:10:33;3.47;;;1.70;;
71836;SDS011;59686;51.716;7.016;2023-08-07T06:13:02;6.28;;;1.90;;
71836;SDS011;59686;51.716;7.016;2023-08-07T06:15:29;4.03;;;2.00;;
71836;SDS011;59686;51.716;7.016;2023-08-07T06:17:56;3.42;;;1.73;;
71836;SDS011;59686;51.716;7.016;2023-08-07T06:20:21;4.47;;;1.77;;
71836;SDS011;59686;51.716;7.016;2023-08-07T06:22:47;2.15;;;1.52;;
71836;SDS011;59686;51.716;7.016;2023-08-07T06:25:13;3.30;;;1.60;;
71836;SDS011;59686;51.716;7.016;2023-08-07T06:27:38;4.88;;;1.77;;
71836;SDS011;59686;51.716;7.016;2023-08-07T06:30:04;3.53;;;1.75;;
71836;SDS011;59686;51.716;7.016;2023-08-07T06:32:31;2.65;;;1.40;;
71836;SDS011;59686;51.716;7.016;2023-08-07T06:34:57;4.88;;;1.70;;
71836;SDS011;59686;51.716;7.016;2023-08-07T06:37:23;2.60;;;1.45;;
71836;SDS011;59686;51.716;7.016;2023-08-07T06:39:50;4.97;;;1.45;;
71836;SDS011;59686;51.716;7.016;2023-08-07T06:42:16;4.68;;;1.60;;
71836;SDS011;59686;51.716;7.016;2023-08-07T06:44:42;3.03;;;1.60;;
71836;SDS011;59686;51.716;7.016;2023-08-07T06:47:07;2.97;;;1.52;;
71836;SDS011;59686;51.716;7.016;2023-08-07T06:49:33;3.30;;;1.50;;
71836;SDS011;59686;51.716;7.016;2023-08-07T06:51:59;2.50;;;1.30;;
71836;SDS011;59686;51.716;7.016;2023-08-07T06:54:25;3.60;;;1.40;;
71836;SDS011;59686;51.716;7.016;2023-08-07T06:56:51;2.55;;;1.42;;
71836;SDS011;59686;51.716;7.016;2023-08-07T06:59:16;1.65;;;1.30;;
71836;SDS011;59686;51.716;7.016;2023-08-07T07:01:44;2.85;;;1.55;;
71836;SDS011;59686;51.716;7.016;2023-08-07T07:04:10;3.00;;;1.20;;
71836;SDS011;59686;51.716;7.016;2023-08-07T07:06:36;1.95;;;1.25;;
71836;SDS011;59686;51.716;7.016;2023-08-07T07:09:05;2.65;;;1.40;;
71836;SDS011;59686;51.716;7.016;2023-08-07T07:11:41;2.97;;;1.30;;
71836;SDS011;59686;51.716;7.016;2023-08-07T07:14:08;2.63;;;1.30;;
71836;SDS011;59686;51.716;7.016;2023-08-07T07:16:34;2.88;;;1.30;;
71836;SDS011;59686;51.716;7.016;2023-08-07T07:19:01;3.30;;;1.40;;
71836;SDS011;59686;51.716;7.016;2023-08-07T07:21:26;2.33;;;1.42;;
71836;SDS011;59686;51.716;7.016;2023-08-07T07:23:52;1.55;;;1.20;;
71836;SDS011;59686;51.716;7.016;2023-08-07T07:26:40;2.17;;;1.33;;
71836;SDS011;59686;51.716;7.016;2023-08-07T07:29:06;2.38;;;1.27;;
71836;SDS011;59686;51.716;7.016;2023-08-07T07:31:32;2.45;;;1.30;;
71836;SDS011;59686;51.716;7.016;2023-08-07T07:33:58;1.95;;;1.38;;
71836;SDS011;59686;51.716;7.016;2023-08-07T07:36:23;2.97;;;1.10;;
71836;SDS011;59686;51.716;7.016;2023-08-07T07:38:49;1.65;;;1.30;;
71836;SDS011;59686;51.716;7.016;2023-08-07T07:41:15;2.70;;;1.30;;
71836;SDS011;59686;51.716;7.016;2023-08-07T07:43:41;1.63;;;1.30;;
71836;SDS011;59686;51.716;7.016;2023-08-07T07:46:07;3.13;;;1.48;;
71836;SDS011;59686;51.716;7.016;2023-08-07T07:48:32;2.83;;;1.40;;
71836;SDS011;59686;51.716;7.016;2023-08-07T07:51:02;3.00;;;1.60;;
71836;SDS011;59686;51.716;7.016;2023-08-07T07:53:31;2.10;;;1.33;;
71836;SDS011;59686;51.716;7.016;2023-08-07T07:55:57;2.90;;;1.40;;
71836;SDS011;59686;51.716;7.016;2023-08-07T07:58:23;4.22;;;1.73;;
71836;SDS011;59686;51.716;7.016;2023-08-07T08:00:49;2.63;;;1.33;;
71836;SDS011;59686;51.716;7.016;2023-08-07T08:03:17;2.15;;;1.50;;
71836;SDS011;59686;51.716;7.016;2023-08-07T08:05:43;3.75;;;1.40;;
71836;SDS011;59686;51.716;7.016;2023-08-07T08:08:08;3.22;;;1.63;;
71836;SDS011;59686;51.716;7.016;2023-08-07T08:10:34;2.95;;;1.55;;
71836;SDS011;59686;51.716;7.016;2023-08-07T08:13:00;3.97;;;1.50;;
71836;SDS011;59686;51.716;7.016;2023-08-07T08:15:26;1.98;;;1.40;;
71836;SDS011;59686;51.716;7.016;2023-08-07T08:17:52;2.95;;;1.50;;
71836;SDS011;59686;51.716;7.016;2023-08-07T08:20:17;3.00;;;1.50;;
71836;SDS011;59686;51.716;7.016;2023-08-07T08:22:44;1.85;;;1.25;;
71836;SDS011;59686;51.716;7.016;2023-08-07T08:25:10;2.80;;;1.40;;
71836;SDS011;59686;51.716;7.016;2023-08-07T08:27:40;2.72;;;1.27;;
71836;SDS011;59686;51.716;7.016;2023-08-07T08:30:06;3.30;;;1.45;;
71836;SDS011;59686;51.716;7.016;2023-08-07T08:32:33;5.97;;;2.00;;
71836;SDS011;59686;51.716;7.016;2023-08-07T08:34:59;3.33;;;1.38;;
71836;SDS011;59686;51.716;7.016;2023-08-07T08:37:25;5.63;;;2.10;;
71836;SDS011;59686;51.716;7.016;2023-08-07T08:39:51;5.07;;;2.10;;
71836;SDS011;59686;51.716;7.016;2023-08-07T08:42:17;5.18;;;1.95;;
71836;SDS011;59686;51.716;7.016;2023-08-07T08:44:52;5.32;;;2.05;;
71836;SDS011;59686;51.716;7.016;2023-08-07T08:47:20;6.13;;;2.20;;
71836;SDS011;59686;51.716;7.016;2023-08-07T08:49:47;5.18;;;2.08;;
71836;SDS011;59686;51.716;7.016;2023-08-07T08:52:16;7.88;;;2.50;;
71836;SDS011;59686;51.716;7.016;2023-08-07T08:54:45;5.38;;;2.53;;
71836;SDS011;59686;51.716;7.016;2023-08-07T08:57:12;5.43;;;2.33;;
71836;SDS011;59686;51.716;7.016;2023-08-07T08:59:39;4.05;;;2.53;;
71836;SDS011;59686;51.716;7.016;2023-08-07T09:02:06;8.27;;;3.28;;
71836;SDS011;59686;51.716;7.016;2023-08-07T09:04:33;5.82;;;2.58;;
71836;SDS011;59686;51.716;7.016;2023-08-07T09:06:59;7.85;;;2.63;;
71836;SDS011;59686;51.716;7.016;2023-08-07T09:09:26;11.32;;;2.92;;
71836;SDS011;59686;51.716;7.016;2023-08-07T09:11:53;9.73;;;3.25;;
71836;SDS011;59686;51.716;7.016;2023-08-07T09:14:22;10.02;;;3.00;;
71836;SDS011;59686;51.716;7.016;2023-08-07T09:16:59;10.23;;;3.30;;
71836;SDS011;59686;51.716;7.016;2023-08-07T09:19:26;7.50;;;3.10;;
71836;SDS011;59686;51.716;7.016;2023-08-07T09:21:52;6.90;;;3.03;;
71836;SDS011;59686;51.716;7.016;2023-08-07T09:24:18;7.95;;;3.13;;
71836;SDS011;59686;51.716;7.016;2023-08-07T09:26:46;10.57;;;3.25;;
71836;SDS011;59686;51.716;7.016;2023-08-07T09:29:13;7.88;;;2.92;;
71836;SDS011;59686;51.716;7.016;2023-08-07T09:31:39;6.82;;;2.88;;
71836;SDS011;59686;51.716;7.016;2023-08-07T09:34:10;6.82;;;2.90;;
71836;SDS011;59686;51.716;7.016;2023-08-07T09:36:38;9.85;;;3.30;;
71836;SDS011;59686;51.716;7.016;2023-08-07T09:39:04;7.47;;;3.03;;
71836;SDS011;59686;51.716;7.016;2023-08-07T09:41:30;6.22;;;2.63;;
71836;SDS011;59686;51.716;7.016;2023-08-07T09:43:56;6.32;;;2.90;;
71836;SDS011;59686;51.716;7.016;2023-08-07T09:46:22;6.68;;;2.63;;
71836;SDS011;59686;51.716;7.016;2023-08-07T09:48:50;7.95;;;2.67;;
71836;SDS011;59686;51.716;7.016;2023-08-07T09:51:16;9.65;;;2.75;;
71836;SDS011;59686;51.716;7.016;2023-08-07T09:53:42;7.95;;;2.47;;
71836;SDS011;59686;51.716;7.016;2023-08-07T09:56:07;7.13;;;3.05;;
71836;SDS011;59686;51.716;7.016;2023-08-07T09:58:34;8.25;;;2.90;;
71836;SDS011;59686;51.716;7.016;2023-08-07T10:01:00;11.38;;;3.63;;
71836;SDS011;59686;51.716;7.016;2023-08-07T10:03:28;8.50;;;3.45;;
71836;SDS011;59686;51.716;7.016;2023-08-07T10:05:55;11.43;;;2.90;;
71836;SDS011;59686;51.716;7.016;2023-08-07T10:08:21;4.18;;;2.53;;
71836;SDS011;59686;51.716;7.016;2023-08-07T10:10:47;7.15;;;3.17;;
71836;SDS011;59686;51.716;7.016;2023-08-07T10:13:13;6.50;;;2.80;;
71836;SDS011;59686;51.716;7.016;2023-08-07T10:15:40;8.55;;;3.13;;
71836;SDS011;59686;51.716;7.016;2023-08-07T10:18:07;5.22;;;2.58;;
71836;SDS011;59686;51.716;7.016;2023-08-07T10:20:38;6.60;;;2.85;;
71836;SDS011;59686;51.716;7.016;2023-08-07T10:23:07;5.13;;;2.75;;
71836;SDS011;59686;51.716;7.016;2023-08-07T10:25:34;6.88;;;3.10;;
71836;SDS011;59686;51.716;7.016;2023-08-07T10:28:03;6.10;;;2.90;;
71836;SDS011;59686;51.716;7.016;2023-08-07T10:30:31;8.38;;;3.10;;
71836;SDS011;59686;51.716;7.016;2023-08-07T10:32:58;8.07;;;3.00;;
71836;SDS011;59686;51.716;7.016;2023-08-07T10:38:19;9.10;;;2.88;;
71836;SDS011;59686;51.716;7.016;2023-08-07T10:41:00;6.50;;;2.80;;
71836;SDS011;59686;51.716;7.016;2023-08-07T10:43:39;7.88;;;2.95;;
71836;SDS011;59686;51.716;7.016;2023-08-07T10:46:10;7.80;;;2.72;;
71836;SDS011;59686;51.716;7.016;2023-08-07T10:48:46;7.53;;;2.95;;
71836;SDS011;59686;51.716;7.016;2023-08-07T10:51:18;8.63;;;3.00;;
71836;SDS011;59686;51.716;7.016;2023-08-07T10:53:48;9.63;;;2.70;;
71836;SDS011;59686;51.716;7.016;2023-08-07T10:56:29;5.25;;;2.78;;
71836;SDS011;59686;51.716;7.016;2023-08-07T10:58:56;5.55;;;3.15;;
71836;SDS011;59686;51.716;7.016;2023-08-07T11:01:27;7.68;;;2.58;;
71836;SDS011;59686;51.716;7.016;2023-08-07T11:04:08;8.50;;;2.90;;
71836;SDS011;59686;51.716;7.016;2023-08-07T11:06:35;7.90;;;2.92;;
71836;SDS011;59686;51.716;7.016;2023-08-07T11:09:05;6.53;;;2.92;;
71836;SDS011;59686;51.716;7.016;2023-08-07T11:14:38;5.35;;;2.60;;
71836;SDS011;59686;51.716;7.016;2023-08-07T11:16:58;6.18;;;2.65;;
71836;SDS011;59686;51.716;7.016;2023-08-07T11:19:24;7.35;;;2.65;;
71836;SDS011;59686;51.716;7.016;2023-08-07T11:21:50;7.80;;;3.10;;
71836;SDS011;59686;51.716;7.016;2023-08-07T11:24:17;7.57;;;2.63;;
71836;SDS011;59686;51.716;7.016;2023-08-07T11:26:45;4.40;;;2.78;;
71836;SDS011;59686;51.716;7.016;2023-08-07T11:29:11;4.78;;;2.42;;
71836;SDS011;59686;51.716;7.016;2023-08-07T11:31:45;6.22;;;2.88;;
71836;SDS011;59686;51.716;7.016;2023-08-07T11:34:11;7.30;;;2.90;;
71836;SDS011;59686;51.716;7.016;2023-08-07T11:36:43;8.77;;;2.78;;
71836;SDS011;59686;51.716;7.016;2023-08-07T11:39:09;7.40;;;2.70;;
71836;SDS011;59686;51.716;7.016;2023-08-07T11:41:36;6.72;;;2.60;;
71836;SDS011;59686;51.716;7.016;2023-08-07T11:44:02;7.72;;;2.30;;
71836;SDS011;59686;51.716;7.016;2023-08-07T11:46:28;5.97;;;3.10;;
71836;SDS011;59686;51.716;7.016;2023-08-07T11:48:54;8.27;;;2.70;;
71836;SDS011;59686;51.716;7.016;2023-08-07T11:51:22;7.25;;;2.38;;
71836;SDS011;59686;51.716;7.016;2023-08-07T11:53:48;7.03;;;2.20;;
71836;SDS011;59686;51.716;7.016;2023-08-07T11:56:14;6.22;;;2.30;;
71836;SDS011;59686;51.716;7.016;2023-08-07T11:58:40;5.28;;;2.25;;
71836;SDS011;59686;51.716;7.016;2023-08-07T12:03:56;7.20;;;2.60;;
71836;SDS011;59686;51.716;7.016;2023-08-07T12:06:32;7.50;;;2.63;;
71836;SDS011;59686;51.716;7.016;2023-08-07T12:08:58;5.18;;;2.35;;
71836;SDS011;59686;51.716;7.016;2023-08-07T12:11:24;7.32;;;2.50;;
71836;SDS011;59686;51.716;7.016;2023-08-07T12:13:50;7.57;;;2.28;;
71836;SDS011;59686;51.716;7.016;2023-08-07T12:16:17;5.78;;;2.13;;
71836;SDS011;59686;51.716;7.016;2023-08-07T12:21:14;8.55;;;2.40;;
71836;SDS011;59686;51.716;7.016;2023-08-07T12:23:41;6.43;;;2.35;;
71836;SDS011;59686;51.716;7.016;2023-08-07T12:26:07;6.80;;;2.38;;
71836;SDS011;59686;51.716;7.016;2023-08-07T12:28:34;4.63;;;2.45;;
71836;SDS011;59686;51.716;7.016;2023-08-07T12:31:00;6.63;;;2.65;;
71836;SDS011;59686;51.716;7.016;2023-08-07T12:33:27;6.88;;;2.63;;
71836;SDS011;59686;51.716;7.016;2023-08-07T12:35:54;9.10;;;2.47;;
71836;SDS011;59686;51.716;7.016;2023-08-07T12:38:21;6.47;;;2.30;;
71836;SDS011;59686;51.716;7.016;2023-08-07T12:40:46;5.68;;;2.85;;
71836;SDS011;59686;51.716;7.016;2023-08-07T12:43:12;9.45;;;2.40;;
71836;SDS011;59686;51.716;7.016;2023-08-07T12:45:38;7.40;;;2.40;;
71836;SDS011;59686;51.716;7.016;2023-08-07T12:48:03;6.05;;;2.50;;
71836;SDS011;59686;51.716;7.016;2023-08-07T12:50:30;5.13;;;2.55;;
71836;SDS011;59686;51.716;7.016;2023-08-07T12:52:56;5.25;;;2.40;;
71836;SDS011;59686;51.716;7.016;2023-08-07T12:55:22;4.63;;;2.17;;
71836;SDS011;59686;51.716;7.016;2023-08-07T12:57:47;7.28;;;2.47;;
71836;SDS011;59686;51.716;7.016;2023-08-07T13:00:14;5.03;;;2.40;;
71836;SDS011;59686;51.716;7.016;2023-08-07T13:02:47;5.90;;;2.50;;
71836;SDS011;59686;51.716;7.016;2023-08-07T13:05:14;8.18;;;2.47;;
71836;SDS011;59686;51.716;7.016;2023-08-07T13:07:44;5.72;;;2.05;;
71836;SDS011;59686;51.716;7.016;2023-08-07T13:10:11;5.22;;;2.42;;
71836;SDS011;59686;51.716;7.016;2023-08-07T13:12:39;3.15;;;2.20;;
71836;SDS011;59686;51.716;7.016;2023-08-07T13:15:06;5.50;;;2.25;;
71836;SDS011;59686;51.716;7.016;2023-08-07T13:17:36;6.80;;;2.40;;
71836;SDS011;59686;51.716;7.016;2023-08-07T13:20:03;6.22;;;2.28;;
71836;SDS011;59686;51.716;7.016;2023-08-07T13:22:36;4.72;;;2.35;;
71836;SDS011;59686;51.716;7.016;2023-08-07T13:25:03;6.68;;;2.75;;
71836;SDS011;59686;51.716;7.016;2023-08-07T13:27:32;4.15;;;2.35;;
71836;SDS011;59686;51.716;7.016;2023-08-07T13:29:59;4.63;;;2.20;;
71836;SDS011;59686;51.716;7.016;2023-08-07T13:32:26;5.18;;;2.30;;
71836;SDS011;59686;51.716;7.016;2023-08-07T13:34:52;7.68;;;2.50;;
71836;SDS011;59686;51.716;7.016;2023-08-07T13:37:17;5.28;;;2.45;;
71836;SDS011;59686;51.716;7.016;2023-08-07T13:39:43;5.07;;;2.55;;
71836;SDS011;59686;51.716;7.016;2023-08-07T13:42:09;9.75;;;2.80;;
71836;SDS011;59686;51.716;7.016;2023-08-07T13:44:35;5.00;;;2.40;;
71836;SDS011;59686;51.716;7.016;2023-08-07T13:47:02;5.50;;;2.30;;
71836;SDS011;59686;51.716;7.016;2023-08-07T13:49:28;6.55;;;2.63;;
71836;SDS011;59686;51.716;7.016;2023-08-07T13:51:54;7.05;;;2.58;;
71836;SDS011;59686;51.716;7.016;2023-08-07T13:54:19;6.22;;;2.17;;
71836;SDS011;59686;51.716;7.016;2023-08-07T13:56:46;8.15;;;2.72;;
71836;SDS011;59686;51.716;7.016;2023-08-07T13:59:12;4.15;;;2.30;;
71836;SDS011;59686;51.716;7.016;2023-08-07T14:01:37;6.63;;;2.25;;
71836;SDS011;59686;51.716;7.016;2023-08-07T14:04:04;6.28;;;2.28;;
71836;SDS011;59686;51.716;7.016;2023-08-07T14:06:30;6.15;;;2.38;;
71836;SDS011;59686;51.716;7.016;2023-08-07T14:08:56;7.35;;;2.47;;
71836;SDS011;59686;51.716;7.016;2023-08-07T14:11:22;5.07;;;2.38;;
71836;SDS011;59686;51.716;7.016;2023-08-07T14:13:52;6.38;;;2.45;;
71836;SDS011;59686;51.716;7.016;2023-08-07T14:16:18;5.43;;;2.58;;
71836;SDS011;59686;51.716;7.016;2023-08-07T14:18:44;7.50;;;2.60;;
71836;SDS011;59686;51.716;7.016;2023-08-07T14:21:10;6.38;;;2.45;;
71836;SDS011;59686;51.716;7.016;2023-08-07T14:23:35;3.88;;;2.03;;
71836;SDS011;59686;51.716;7.016;2023-08-07T14:26:01;4.43;;;2.20;;
71836;SDS011;59686;51.716;7.016;2023-08-07T14:28:27;5.78;;;2.42;;
71836;SDS011;59686;51.716;7.016;2023-08-07T14:30:53;5.00;;;2.45;;
71836;SDS011;59686;51.716;7.016;2023-08-07T14:33:21;5.22;;;2.38;;
71836;SDS011;59686;51.716;7.016;2023-08-07T14:35:47;5.22;;;2.38;;
71836;SDS011;59686;51.716;7.016;2023-08-07T14:38:13;3.88;;;2.42;;
71836;SDS011;59686;51.716;7.016;2023-08-07T14:40:42;6.15;;;2.03;;
71836;SDS011;59686;51.716;7.016;2023-08-07T14:43:08;7.95;;;2.50;;
71836;SDS011;59686;51.716;7.016;2023-08-07T14:45:36;5.43;;;2.33;;
71836;SDS011;59686;51.716;7.016;2023-08-07T14:48:02;5.57;;;2.33;;
71836;SDS011;59686;51.716;7.016;2023-08-07T14:50:28;5.32;;;2.45;;
71836;SDS011;59686;51.716;7.016;2023-08-07T14:52:54;5.45;;;2.45;;
71836;SDS011;59686;51.716;7.016;2023-08-07T14:55:20;5.15;;;2.20;;
71836;SDS011;59686;51.716;7.016;2023-08-07T14:57:46;5.80;;;2.65;;
71836;SDS011;59686;51.716;7.016;2023-08-07T15:00:12;4.45;;;2.45;;
71836;SDS011;59686;51.716;7.016;2023-08-07T15:02:45;6.13;;;2.28;;
71836;SDS011;59686;51.716;7.016;2023-08-07T15:05:11;5.30;;;2.63;;